Time;durP1;ratioP1;P1;durP2;ratioP2;P2;SDS_P1;SDS_P2;PMS_P1;PMS_P2;Temp;Humidity;BMP_temperature;BMP_pressure;BME280_temperature;BME280_humidity;BME280_pressure;Samples;Min_cycle;Max_cycle;Signal;HPM_P1;HPM_P2
2021/09/13 00:02:28;;;;;;;6.43;4.20;;;12.60;99.90;;;;;;4934417;29;20024;-84
2021/09/13 00:04:54;;;;;;;4.35;3.95;;;12.50;99.90;;;;;;4933009;29;20080;-85
2021/09/13 00:07:20;;;;;;;6.22;4.13;;;12.50;99.90;;;;;;4934300;29;20031;-83
2021/09/13 00:09:45;;;;;;;4.03;3.38;;;12.50;99.90;;;;;;4933488;29;20034;-81
2021/09/13 00:12:11;;;;;;;4.25;3.50;;;12.50;99.90;;;;;;4933613;29;20038;-81
2021/09/13 00:14:36;;;;;;;8.75;3.75;;;12.50;99.90;;;;;;4935273;29;20039;-82
2021/09/13 00:17:02;;;;;;;5.65;3.58;;;12.50;99.90;;;;;;4932996;29;20032;-83
2021/09/13 00:19:28;;;;;;;5.18;3.97;;;12.40;99.90;;;;;;4933514;29;20543;-82
2021/09/13 00:21:53;;;;;;;5.00;3.97;;;12.40;99.90;;;;;;4933459;29;20030;-83
2021/09/13 00:24:19;;;;;;;4.60;3.60;;;12.40;99.90;;;;;;4932885;29;20034;-81
2021/09/13 00:26:45;;;;;;;6.50;3.90;;;12.30;99.90;;;;;;4933641;29;20047;-81
2021/09/13 00:29:10;;;;;;;5.22;3.70;;;12.30;99.90;;;;;;4933744;29;20354;-83
2021/09/13 00:31:37;;;;;;;4.28;3.50;;;12.30;99.90;;;;;;4932929;29;20119;-83
2021/09/13 00:34:03;;;;;;;6.85;4.22;;;12.30;99.90;;;;;;4933176;29;20028;-81
2021/09/13 00:36:28;;;;;;;9.95;4.55;;;12.30;99.90;;;;;;4949672;29;20035;-82
2021/09/13 00:38:54;;;;;;;14.75;4.63;;;12.30;99.90;;;;;;4931747;29;20034;-82
2021/09/13 00:41:20;;;;;;;21.98;5.63;;;12.30;99.90;;;;;;4934742;29;20059;-82
2021/09/13 00:43:46;;;;;;;37.35;9.93;;;12.30;99.90;;;;;;4934514;29;20502;-81
2021/09/13 00:46:12;;;;;;;47.50;10.20;;;12.30;99.90;;;;;;4932927;29;20130;-83
2021/09/13 00:48:37;;;;;;;40.38;10.05;;;12.20;99.90;;;;;;4933202;29;20020;-83
2021/09/13 00:51:03;;;;;;;37.53;9.68;;;12.20;99.90;;;;;;4933068;29;20114;-82
2021/09/13 00:53:31;;;;;;;52.75;10.25;;;12.20;99.90;;;;;;4932615;29;20565;-82
2021/09/13 00:55:57;;;;;;;26.45;8.63;;;12.20;99.90;;;;;;4933808;29;20039;-81
2021/09/13 00:58:25;;;;;;;25.52;8.93;;;12.10;99.90;;;;;;4933153;29;20535;-81
2021/09/13 01:00:50;;;;;;;25.75;8.13;;;12.10;99.90;;;;;;4932425;29;20020;-81
2021/09/13 01:03:16;;;;;;;19.42;6.53;;;12.10;99.90;;;;;;4933315;29;20087;-83
2021/09/13 01:05:42;;;;;;;28.73;6.55;;;12.00;99.90;;;;;;4933065;29;20560;-83
2021/09/13 01:08:07;;;;;;;18.98;6.10;;;12.00;99.90;;;;;;4932022;29;20020;-83
2021/09/13 01:10:33;;;;;;;12.02;5.70;;;12.00;99.90;;;;;;4932983;29;20083;-83
2021/09/13 01:12:58;;;;;;;12.98;5.25;;;12.00;99.90;;;;;;4933786;29;20028;-84
2021/09/13 01:15:24;;;;;;;13.77;6.07;;;12.00;99.90;;;;;;4932604;29;20404;-83
2021/09/13 01:17:49;;;;;;;12.85;5.13;;;11.90;99.90;;;;;;4933674;29;20075;-81
2021/09/13 01:20:15;;;;;;;10.73;4.97;;;11.90;99.90;;;;;;4932925;29;20027;-81
2021/09/13 01:22:44;;;;;;;9.07;4.88;;;11.90;99.90;;;;;;4933440;29;20388;-83
2021/09/13 01:25:10;;;;;;;13.77;5.07;;;11.80;99.90;;;;;;4933917;29;20091;-83
2021/09/13 01:27:36;;;;;;;62.28;11.45;;;11.90;99.90;;;;;;4948506;29;20019;-82
2021/09/13 01:30:03;;;;;;;90.05;18.38;;;11.80;99.90;;;;;;4932389;29;20142;-81
2021/09/13 01:32:29;;;;;;;75.32;17.02;;;11.80;99.90;;;;;;4932856;29;20027;-84
2021/09/13 01:34:54;;;;;;;46.78;13.15;;;11.80;99.90;;;;;;4931546;29;20043;-85
2021/09/13 01:37:20;;;;;;;36.45;10.55;;;11.80;99.90;;;;;;4934130;29;20055;-84
2021/09/13 01:39:46;;;;;;;29.00;8.40;;;11.70;99.90;;;;;;4932446;29;20034;-83
2021/09/13 01:42:11;;;;;;;23.10;6.35;;;11.70;99.90;;;;;;4931987;29;20599;-83
2021/09/13 01:44:37;;;;;;;46.03;9.85;;;11.70;99.90;;;;;;4934208;29;20504;-83
2021/09/13 01:47:03;;;;;;;45.92;11.07;;;11.70;99.90;;;;;;4933553;29;20031;-83
2021/09/13 01:49:28;;;;;;;23.52;9.30;;;11.70;99.90;;;;;;4932074;29;20024;-84
2021/09/13 01:51:54;;;;;;;28.25;7.03;;;11.70;99.90;;;;;;4937462;29;20027;-83
2021/09/13 01:54:20;;;;;;;32.65;8.77;;;11.70;99.90;;;;;;4936591;29;20042;-81
2021/09/13 01:56:45;;;;;;;37.65;9.93;;;11.70;99.90;;;;;;4935444;29;20028;-82
2021/09/13 01:59:11;;;;;;;21.58;7.18;;;11.70;99.90;;;;;;4936222;29;20038;-84
2021/09/13 02:01:36;;;;;;;42.05;9.60;;;11.70;99.90;;;;;;4936787;29;20024;-83
2021/09/13 02:04:03;;;;;;;45.28;9.55;;;11.70;99.90;;;;;;4935334;29;20100;-84
2021/09/13 02:06:30;;;;;;;25.65;7.55;;;11.70;99.90;;;;;;4937822;29;20083;-84
2021/09/13 02:08:55;;;;;;;21.20;7.13;;;11.70;99.90;;;;;;4920101;29;20032;-84
2021/09/13 02:11:21;;;;;;;22.73;7.00;;;11.70;99.90;;;;;;4936860;29;20027;-84
2021/09/13 02:13:46;;;;;;;16.27;5.10;;;11.70;99.90;;;;;;4935839;29;20118;-85
2021/09/13 02:16:12;;;;;;;11.38;5.05;;;11.70;99.90;;;;;;4936259;29;20032;-85
2021/09/13 02:18:38;;;;;;;10.80;4.63;;;11.70;99.90;;;;;;4936857;29;20055;-83
2021/09/13 02:21:04;;;;;;;8.15;4.20;;;11.70;99.90;;;;;;4935421;29;20384;-84
2021/09/13 02:23:29;;;;;;;7.32;3.78;;;11.70;99.90;;;;;;4936148;29;20027;-84
2021/09/13 02:25:55;;;;;;;6.72;3.20;;;11.70;99.90;;;;;;4934876;29;20034;-85
2021/09/13 02:28:20;;;;;;;3.75;3.13;;;11.70;99.90;;;;;;4937066;29;20028;-84
2021/09/13 02:30:46;;;;;;;3.70;3.28;;;11.70;99.90;;;;;;4936165;29;20134;-85
2021/09/13 02:33:12;;;;;;;3.65;2.80;;;11.70;99.90;;;;;;4937072;29;20032;-85
2021/09/13 02:35:37;;;;;;;3.10;2.80;;;11.70;99.90;;;;;;4936046;29;20039;-85
2021/09/13 02:38:03;;;;;;;4.57;3.53;;;11.80;99.90;;;;;;4934704;29;20031;-85
2021/09/13 02:40:29;;;;;;;3.70;2.80;;;11.80;99.90;;;;;;4932827;29;20032;-84
2021/09/13 02:42:54;;;;;;;3.85;2.97;;;11.80;99.90;;;;;;4925242;29;20384;-84
2021/09/13 02:45:20;;;;;;;4.53;2.85;;;11.70;99.90;;;;;;4918609;29;20025;-85
2021/09/13 02:47:45;;;;;;;7.45;3.13;;;11.70;99.90;;;;;;4930148;29;20043;-86
2021/09/13 02:50:11;;;;;;;6.03;3.53;;;11.70;99.90;;;;;;4924233;29;20032;-85
2021/09/13 02:52:37;;;;;;;3.40;2.72;;;11.60;99.90;;;;;;4935025;29;20032;-85
2021/09/13 02:55:04;;;;;;;6.88;2.80;;;11.60;99.90;;;;;;4923594;29;20036;-86
2021/09/13 02:57:30;;;;;;;4.88;2.97;;;11.60;99.90;;;;;;4916597;29;20079;-86
2021/09/13 02:59:57;;;;;;;6.35;3.65;;;11.60;99.90;;;;;;4948722;29;20031;-85
2021/09/13 03:02:22;;;;;;;4.65;2.60;;;11.60;99.90;;;;;;4953960;28;20107;-86
2021/09/13 03:04:48;;;;;;;5.13;3.35;;;11.60;99.90;;;;;;4955446;29;20063;-85
2021/09/13 03:07:14;;;;;;;4.13;2.97;;;11.60;99.90;;;;;;4955011;29;20102;-86
2021/09/13 03:09:40;;;;;;;4.88;2.80;;;11.50;99.90;;;;;;4955661;29;20023;-86
2021/09/13 03:12:07;;;;;;;4.55;2.78;;;11.50;99.90;;;;;;4954201;29;20033;-85
2021/09/13 03:14:33;;;;;;;3.47;2.78;;;11.50;99.90;;;;;;4954588;29;20023;-86
2021/09/13 03:16:59;;;;;;;3.25;2.60;;;11.50;99.90;;;;;;4955119;29;20038;-86
2021/09/13 03:19:25;;;;;;;4.97;3.22;;;11.50;99.90;;;;;;4955356;29;20090;-85
2021/09/13 03:21:50;;;;;;;4.38;3.17;;;11.50;99.90;;;;;;4953125;29;20467;-84
2021/09/13 03:24:16;;;;;;;4.13;2.85;;;11.40;99.90;;;;;;4954173;29;20020;-84
2021/09/13 03:26:42;;;;;;;4.95;2.67;;;11.40;99.90;;;;;;4955274;29;20046;-85
2021/09/13 03:29:07;;;;;;;6.28;3.00;;;11.40;99.90;;;;;;4952853;29;20063;-85
2021/09/13 03:31:33;;;;;;;5.07;2.90;;;11.40;99.90;;;;;;4953980;29;20055;-85
2021/09/13 03:33:59;;;;;;;3.58;2.78;;;11.40;99.90;;;;;;4953132;29;20365;-83
2021/09/13 03:36:24;;;;;;;3.70;2.75;;;11.40;99.90;;;;;;4953965;29;20079;-84
2021/09/13 03:38:50;;;;;;;5.40;2.83;;;11.40;99.90;;;;;;4953259;29;20023;-85
2021/09/13 03:41:15;;;;;;;8.35;3.08;;;11.40;99.90;;;;;;4954445;29;20078;-84
2021/09/13 03:43:41;;;;;;;7.07;3.00;;;11.40;99.90;;;;;;4954992;29;20551;-84
2021/09/13 03:46:06;;;;;;;2.58;2.13;;;11.40;99.90;;;;;;4953451;29;20388;-84
2021/09/13 03:48:32;;;;;;;3.33;2.58;;;11.40;99.90;;;;;;4952957;29;20122;-83
2021/09/13 03:50:58;;;;;;;5.95;2.60;;;11.40;99.90;;;;;;4953203;29;20038;-85
2021/09/13 03:53:23;;;;;;;7.70;2.38;;;11.40;99.90;;;;;;4953322;29;20030;-85
2021/09/13 03:55:49;;;;;;;6.13;2.33;;;11.40;99.90;;;;;;4952776;29;20031;-84
2021/09/13 03:58:14;;;;;;;3.38;3.08;;;11.40;99.90;;;;;;4953540;29;20027;-85
2021/09/13 04:00:40;;;;;;;2.70;2.42;;;11.40;99.90;;;;;;4953618;29;20034;-85
2021/09/13 04:03:10;;;;;;;5.82;2.70;;;11.40;99.90;;;;;;4954034;29;20384;-84
2021/09/13 04:05:42;;;;;;;6.30;2.50;;;11.40;99.90;;;;;;4955151;29;20428;-85
2021/09/13 04:10:58;;;;;;;5.38;2.60;;;11.40;99.90;;;;;;4953876;28;19997;-84
2021/09/13 04:13:24;;;;;;;4.38;2.92;;;11.50;99.90;;;;;;4952154;28;20031;-85
2021/09/13 04:15:50;;;;;;;3.80;3.42;;;11.50;99.90;;;;;;4952705;29;20031;-85
2021/09/13 04:18:16;;;;;;;3.33;2.78;;;11.50;99.90;;;;;;4952267;29;20023;-85
2021/09/13 04:20:41;;;;;;;3.67;2.97;;;11.50;99.90;;;;;;4952997;29;20035;-84
2021/09/13 04:23:07;;;;;;;5.93;2.95;;;11.50;99.90;;;;;;4952749;29;20437;-85
2021/09/13 04:25:32;;;;;;;3.78;2.60;;;11.60;99.90;;;;;;4953844;29;20031;-85
2021/09/13 04:27:58;;;;;;;4.60;2.80;;;11.60;99.90;;;;;;4952287;29;20023;-83
2021/09/13 04:30:25;;;;;;;5.25;3.10;;;11.60;99.90;;;;;;4952099;29;20047;-85
2021/09/13 04:32:51;;;;;;;5.40;3.50;;;11.60;99.90;;;;;;4952552;29;20464;-84
2021/09/13 04:35:16;;;;;;;6.57;3.60;;;11.60;99.90;;;;;;4952616;29;20504;-85
2021/09/13 04:37:42;;;;;;;4.70;3.22;;;11.50;99.90;;;;;;4952091;29;20050;-85
2021/09/13 04:40:08;;;;;;;4.38;2.78;;;11.60;99.90;;;;;;4952371;29;20023;-85
2021/09/13 04:42:33;;;;;;;3.67;2.70;;;11.50;99.90;;;;;;4952687;29;20118;-85
2021/09/13 04:44:59;;;;;;;3.65;2.85;;;11.50;99.90;;;;;;4952822;29;20369;-85
2021/09/13 04:47:25;;;;;;;3.67;2.92;;;11.50;99.90;;;;;;4954011;29;20599;-86
2021/09/13 04:49:51;;;;;;;5.47;3.35;;;11.40;99.90;;;;;;4953773;29;20027;-85
2021/09/13 04:52:16;;;;;;;5.43;3.20;;;11.40;99.90;;;;;;4952061;29;20015;-85
2021/09/13 04:54:42;;;;;;;6.22;3.45;;;11.40;99.90;;;;;;4953727;29;20070;-85
2021/09/13 04:57:07;;;;;;;3.90;3.00;;;11.40;99.90;;;;;;4953587;29;20019;-86
2021/09/13 04:59:33;;;;;;;6.68;2.83;;;11.40;99.90;;;;;;4931722;29;20369;-87
2021/09/13 05:01:58;;;;;;;4.85;3.22;;;11.40;99.90;;;;;;4914280;29;20038;-85
2021/09/13 05:04:24;;;;;;;5.43;3.03;;;11.40;99.90;;;;;;4916865;29;20111;-85
2021/09/13 05:06:49;;;;;;;6.20;3.30;;;11.40;99.90;;;;;;4928518;29;20119;-85
2021/09/13 05:09:15;;;;;;;6.15;3.15;;;11.30;99.90;;;;;;4923373;29;20449;-86
2021/09/13 05:11:42;;;;;;;4.75;2.70;;;11.40;99.90;;;;;;4915068;29;20107;-85
2021/09/13 05:14:08;;;;;;;4.13;3.13;;;11.40;99.90;;;;;;4917776;29;20051;-85
2021/09/13 05:16:34;;;;;;;3.63;2.38;;;11.40;99.90;;;;;;4933077;29;20455;-86
2021/09/13 05:18:59;;;;;;;5.28;2.90;;;11.40;99.90;;;;;;4932547;29;20106;-85
2021/09/13 05:21:25;;;;;;;3.50;2.90;;;11.40;99.90;;;;;;4932693;29;20027;-85
2021/09/13 05:23:51;;;;;;;3.45;2.80;;;11.50;99.90;;;;;;4932658;29;20024;-84
2021/09/13 05:26:16;;;;;;;6.45;3.90;;;11.50;99.90;;;;;;4930682;29;20031;-84
2021/09/13 05:28:42;;;;;;;5.72;3.63;;;11.60;99.90;;;;;;4932182;29;20060;-84
2021/09/13 05:31:08;;;;;;;5.40;4.20;;;11.60;99.90;;;;;;4927841;29;20531;-82
2021/09/13 05:33:33;;;;;;;7.20;3.90;;;11.70;99.90;;;;;;4925589;29;20107;-82
2021/09/13 05:35:59;;;;;;;5.10;3.75;;;11.80;99.90;;;;;;4929601;29;20036;-82
2021/09/13 05:38:25;;;;;;;4.07;3.63;;;11.80;99.90;;;;;;4922817;29;20445;-82
2021/09/13 05:40:51;;;;;;;5.25;3.83;;;11.80;99.90;;;;;;4930376;29;20143;-83
2021/09/13 05:43:17;;;;;;;4.22;3.55;;;11.80;99.90;;;;;;4916490;29;20119;-84
2021/09/13 05:45:42;;;;;;;8.45;4.10;;;11.90;99.90;;;;;;4915085;29;20452;-82
2021/09/13 05:48:08;;;;;;;6.80;4.10;;;11.90;99.90;;;;;;4912863;29;20031;-83
2021/09/13 05:50:34;;;;;;;8.20;3.90;;;12.00;99.90;;;;;;4920705;29;20042;-77
2021/09/13 05:53:00;;;;;;;4.85;3.95;;;12.00;99.90;;;;;;4931310;29;20024;-76
2021/09/13 05:55:25;;;;;;;8.25;4.35;;;12.00;99.90;;;;;;4931809;29;20448;-77
2021/09/13 05:57:51;;;;;;;6.18;4.95;;;12.10;99.90;;;;;;4914891;29;20467;-76
2021/09/13 06:00:19;;;;;;;5.43;4.93;;;12.10;99.90;;;;;;4913131;29;20544;-77
2021/09/13 06:02:44;;;;;;;7.47;5.20;;;12.20;99.90;;;;;;4913028;29;20497;-77
2021/09/13 06:05:11;;;;;;;6.00;5.20;;;12.20;99.90;;;;;;4926648;29;20039;-77
2021/09/13 06:07:37;;;;;;;5.43;4.93;;;12.20;99.90;;;;;;4918673;29;20078;-76
2021/09/13 06:10:03;;;;;;;8.70;5.65;;;12.20;99.90;;;;;;4929292;29;20114;-80
2021/09/13 06:12:29;;;;;;;5.93;5.32;;;12.30;99.90;;;;;;4933166;29;20111;-72
2021/09/13 06:14:56;;;;;;;8.35;6.03;;;12.30;99.90;;;;;;4932216;29;20038;-76
2021/09/13 06:17:21;;;;;;;8.77;5.43;;;12.30;99.90;;;;;;4931699;29;20024;-72
2021/09/13 06:19:47;;;;;;;6.50;5.57;;;12.40;99.90;;;;;;4921252;29;20365;-74
2021/09/13 06:22:13;;;;;;;10.57;6.65;;;12.40;99.90;;;;;;4917539;29;20024;-77
2021/09/13 06:24:39;;;;;;;8.38;6.45;;;12.40;99.90;;;;;;4913082;29;20028;-72
2021/09/13 06:27:06;;;;;;;6.35;5.72;;;12.40;99.90;;;;;;4914250;29;20032;-82
2021/09/13 06:29:33;;;;;;;11.75;6.70;;;12.50;99.90;;;;;;4914205;29;20027;-77
2021/09/13 06:31:59;;;;;;;10.77;6.30;;;12.50;99.90;;;;;;4923233;29;20098;-76
2021/09/13 06:34:24;;;;;;;7.45;6.68;;;12.60;99.90;;;;;;4939428;29;20484;-77
2021/09/13 06:36:50;;;;;;;8.68;7.18;;;12.60;99.90;;;;;;4931413;29;20036;-78
2021/09/13 06:39:16;;;;;;;11.27;6.80;;;12.70;99.90;;;;;;4931328;29;20032;-74
2021/09/13 06:41:41;;;;;;;8.15;7.20;;;12.70;99.90;;;;;;4926935;29;20038;-78
2021/09/13 06:44:07;;;;;;;10.63;8.27;;;12.80;99.90;;;;;;4934411;29;20020;-73
2021/09/13 06:46:35;;;;;;;14.07;8.73;;;12.80;99.90;;;;;;4917959;29;20112;-73
2021/09/13 06:49:01;;;;;;;10.32;7.88;;;12.90;99.90;;;;;;4917310;29;20036;-80
2021/09/13 06:51:26;;;;;;;9.40;7.90;;;13.00;99.90;;;;;;4926151;29;20079;-76
2021/09/13 06:53:52;;;;;;;9.57;7.03;;;13.00;99.90;;;;;;4917758;29;20044;-74
2021/09/13 06:56:18;;;;;;;10.52;7.00;;;13.10;99.90;;;;;;4917203;29;20040;-76
2021/09/13 06:58:43;;;;;;;9.75;7.65;;;13.10;99.90;;;;;;4915320;29;20020;-75
2021/09/13 07:01:09;;;;;;;10.52;8.15;;;13.10;99.90;;;;;;4916601;29;20035;-75
2021/09/13 07:03:35;;;;;;;12.85;7.75;;;13.20;99.90;;;;;;4918183;29;20557;-75
2021/09/13 07:06:01;;;;;;;10.95;7.07;;;13.20;99.90;;;;;;4916117;29;20039;-74
2021/09/13 07:08:27;;;;;;;12.43;7.43;;;13.20;99.90;;;;;;4917291;29;20088;-73
2021/09/13 07:10:56;;;;;;;8.85;7.90;;;13.30;99.90;;;;;;4915392;29;20054;-74
2021/09/13 07:13:22;;;;;;;8.85;7.90;;;13.40;99.90;;;;;;4916606;29;20024;-80
2021/09/13 07:15:48;;;;;;;12.10;8.85;;;13.50;99.90;;;;;;4883478;29;20052;-77
2021/09/13 07:18:14;;;;;;;15.45;8.25;;;13.60;99.90;;;;;;4900698;29;20032;-74
2021/09/13 07:20:40;;;;;;;13.98;8.77;;;13.70;99.90;;;;;;4932659;29;20487;-71
2021/09/13 07:23:06;;;;;;;12.45;8.77;;;13.80;99.90;;;;;;4923784;29;20067;-76
2021/09/13 07:25:32;;;;;;;11.18;8.57;;;13.90;99.90;;;;;;4915797;29;20500;-71
2021/09/13 07:27:58;;;;;;;9.68;8.40;;;14.00;99.90;;;;;;4916687;29;20031;-79
2021/09/13 07:30:24;;;;;;;13.68;9.27;;;14.10;99.90;;;;;;4915925;29;20047;-76
2021/09/13 07:32:49;;;;;;;13.40;10.35;;;14.20;99.90;;;;;;4914978;29;20032;-75
2021/09/13 07:35:15;;;;;;;12.35;9.27;;;14.40;99.90;;;;;;4914960;29;20058;-82
2021/09/13 07:37:41;;;;;;;11.32;8.38;;;14.50;99.90;;;;;;4916406;29;20024;-75
2021/09/13 07:40:08;;;;;;;10.85;8.90;;;14.60;99.90;;;;;;4916268;29;20032;-78
2021/09/13 07:42:34;;;;;;;10.98;8.73;;;14.70;99.90;;;;;;4916004;29;20016;-79
2021/09/13 07:45:01;;;;;;;13.68;9.18;;;14.80;99.90;;;;;;4915068;29;20077;-78
2021/09/13 07:47:27;;;;;;;10.73;8.98;;;14.90;99.90;;;;;;4914543;29;20083;-79
2021/09/13 07:49:53;;;;;;;12.30;8.70;;;15.00;99.90;;;;;;4915130;29;20060;-79
2021/09/13 07:52:18;;;;;;;11.85;9.18;;;15.00;99.90;;;;;;4915429;29;20024;-78
2021/09/13 07:54:45;;;;;;;11.10;8.40;;;15.10;99.90;;;;;;4914366;29;20040;-78
2021/09/13 07:57:10;;;;;;;10.43;8.25;;;15.20;99.90;;;;;;4915305;29;20465;-77
2021/09/13 07:59:36;;;;;;;9.48;7.47;;;15.20;99.90;;;;;;4916686;29;20127;-77
2021/09/13 08:02:02;;;;;;;9.95;6.90;;;15.30;99.90;;;;;;4915493;29;20545;-77
2021/09/13 08:04:27;;;;;;;9.23;6.95;;;15.50;99.90;;;;;;4916742;29;20060;-77
2021/09/13 08:06:53;;;;;;;10.35;6.35;;;15.60;99.90;;;;;;4916060;29;20099;-77
2021/09/13 08:09:19;;;;;;;8.00;6.50;;;15.70;99.90;;;;;;4914572;29;20514;-77
2021/09/13 08:11:44;;;;;;;9.88;7.03;;;15.90;99.90;;;;;;4914863;29;20456;-77
2021/09/13 08:14:10;;;;;;;10.15;7.28;;;16.00;99.90;;;;;;4914986;29;20024;-78
2021/09/13 08:16:36;;;;;;;8.70;7.75;;;16.10;99.90;;;;;;4914418;29;20095;-78
2021/09/13 08:19:01;;;;;;;11.77;7.80;;;16.30;99.90;;;;;;4914259;29;20111;-78
2021/09/13 08:21:27;;;;;;;9.30;7.32;;;16.50;99.90;;;;;;4915112;29;20028;-78
2021/09/13 08:23:54;;;;;;;14.38;7.63;;;16.70;99.90;;;;;;4913826;29;20047;-78
2021/09/13 08:26:20;;;;;;;6.40;4.70;;;16.90;99.90;;;;;;4914756;29;20568;-78
2021/09/13 08:28:45;;;;;;;6.55;4.75;;;17.20;99.90;;;;;;4914429;29;20122;-78
2021/09/13 08:31:11;;;;;;;5.93;3.63;;;17.50;99.90;;;;;;4915395;29;20485;-79
2021/09/13 08:33:38;;;;;;;4.22;3.28;;;17.70;99.90;;;;;;4916033;29;20036;-78
2021/09/13 08:36:04;;;;;;;3.30;3.00;;;18.00;99.90;;;;;;4914270;29;20040;-79
2021/09/13 08:38:30;;;;;;;4.00;3.50;;;18.20;99.90;;;;;;4913986;29;20127;-78
2021/09/13 08:40:56;;;;;;;5.45;4.22;;;18.40;99.90;;;;;;4914220;29;20111;-79
2021/09/13 08:43:22;;;;;;;7.35;4.78;;;18.40;99.90;;;;;;4914587;29;20035;-78
2021/09/13 08:45:53;;;;;;;6.45;4.80;;;18.50;99.90;;;;;;4913843;29;20024;-78
2021/09/13 08:48:26;;;;;;;4.82;4.32;;;18.60;99.90;;;;;;4914308;29;20029;-78
2021/09/13 08:53:22;;;;;;;4.22;2.55;;;18.60;99.90;;;;;;4915531;29;20059;-79
2021/09/13 08:55:50;;;;;;;3.80;2.40;;;18.50;99.90;;;;;;4914059;29;20072;-78
2021/09/13 08:58:22;;;;;;;3.30;2.08;;;18.50;99.90;;;;;;4913664;29;20552;-78
2021/09/13 09:00:49;;;;;;;;;;;18.50;99.90;;;;;;4913896;29;20033;-78
2021/09/13 09:03:16;;;;;;;3.22;2.03;;;18.50;99.90;;;;;;4914386;29;19907;-79
2021/09/13 09:05:46;;;;;;;3.67;2.00;;;18.50;99.90;;;;;;4913255;29;20028;-79
2021/09/13 09:08:30;;;;;;;4.00;1.98;;;18.60;99.90;;;;;;4913910;29;20021;-78
2021/09/13 09:11:03;;;;;;;4.30;2.10;;;18.50;99.90;;;;;;4913401;29;20024;-78
2021/09/13 09:13:37;;;;;;;2.83;2.15;;;18.60;99.90;;;;;;4914611;29;20080;-78
2021/09/13 09:16:04;;;;;;;2.50;1.58;;;18.60;99.90;;;;;;4914812;29;20032;-78
2021/09/13 09:18:41;;;;;;;5.30;2.08;;;18.60;99.90;;;;;;4914103;29;20425;-78
2021/09/13 09:21:10;;;;;;;3.88;1.23;;;18.70;99.90;;;;;;4913925;29;20055;-79
2021/09/13 09:23:56;;;;;;;3.08;1.40;;;18.70;99.90;;;;;;4914159;29;20028;-78
2021/09/13 09:26:22;;;;;;;3.17;1.38;;;18.80;99.90;;;;;;4913255;29;20036;-79
2021/09/13 09:28:48;;;;;;;2.00;1.15;;;18.80;99.90;;;;;;4913617;29;20035;-79
2021/09/13 09:31:13;;;;;;;2.10;1.20;;;19.00;99.90;;;;;;4913786;29;20052;-80
2021/09/13 09:33:39;;;;;;;3.17;1.25;;;19.10;99.90;;;;;;4914471;29;20070;-79
2021/09/13 09:36:12;;;;;;;2.58;1.40;;;19.20;99.90;;;;;;4912904;29;20445;-79
2021/09/13 09:38:39;;;;;;;2.75;1.52;;;19.20;99.90;;;;;;4913852;29;20024;-79
2021/09/13 09:41:06;;;;;;;2.25;1.67;;;19.20;99.90;;;;;;4912795;29;20036;-78
2021/09/13 09:43:52;;;;;;;2.58;1.60;;;19.20;99.90;;;;;;4914170;29;20476;-78
2021/09/13 09:46:18;;;;;;;3.55;1.98;;;19.20;99.90;;;;;;4913950;29;20028;-78
2021/09/13 09:48:45;;;;;;;1.52;1.30;;;19.20;99.90;;;;;;4913151;29;20035;-79
2021/09/13 09:51:38;;;;;;;3.22;1.80;;;19.20;99.90;;;;;;4913732;29;20059;-79
2021/09/13 09:54:15;;;;;;;1.65;1.27;;;19.20;99.90;;;;;;4912626;29;20043;-78
2021/09/13 09:56:43;;;;;;;2.33;1.75;;;19.20;99.90;;;;;;4913726;29;20091;-79
2021/09/13 09:59:12;;;;;;;3.55;1.92;;;19.20;99.90;;;;;;4912988;29;20392;-80
2021/09/13 10:01:40;;;;;;;4.03;2.67;;;19.30;99.90;;;;;;4913317;29;20171;-79
2021/09/13 10:04:26;;;;;;;3.20;2.10;;;19.40;99.90;;;;;;4913332;29;20436;-78
2021/09/13 10:06:56;;;;;;;2.55;1.98;;;19.50;99.90;;;;;;4913639;29;20614;-79
2021/09/13 10:09:24;;;;;;;2.42;1.50;;;19.50;99.90;;;;;;4912808;29;20501;-79
2021/09/13 10:11:53;;;;;;;1.83;1.67;;;19.50;99.90;;;;;;4916689;29;20024;-79
2021/09/13 10:14:21;;;;;;;3.13;1.48;;;19.50;99.90;;;;;;4918561;29;20022;-79
2021/09/13 10:16:47;;;;;;;2.47;1.60;;;19.60;99.90;;;;;;4916196;29;20092;-79
2021/09/13 10:19:14;;;;;;;3.17;1.38;;;19.70;99.90;;;;;;4916893;29;20552;-79
2021/09/13 10:21:39;;;;;;;2.85;1.42;;;20.00;99.90;;;;;;4901501;29;20036;-78
2021/09/13 10:24:12;;;;;;;4.10;1.55;;;20.20;99.90;;;;;;4915879;29;20028;-78
2021/09/13 10:26:41;;;;;;;5.13;1.67;;;20.40;99.90;;;;;;4917241;29;20473;-79
2021/09/13 10:29:07;;;;;;;2.20;1.35;;;20.70;99.90;;;;;;4898883;29;20040;-79
2021/09/13 10:31:42;;;;;;;2.03;1.40;;;20.90;99.90;;;;;;4916962;29;20052;-79
2021/09/13 10:34:25;;;;;;;3.00;1.35;;;21.00;99.90;;;;;;4915935;29;20028;-81
2021/09/13 10:37:16;;;;;;;3.10;1.40;;;21.30;99.90;;;;;;4922080;29;20043;-75
2021/09/13 10:40:01;;;;;;;2.50;1.50;;;21.40;99.90;;;;;;4926091;29;20742;-76
2021/09/13 10:42:44;;;;;;;3.65;2.05;;;21.30;99.90;;;;;;4922116;29;20032;-72
2021/09/13 10:45:09;;;;;;;2.80;1.48;;;21.20;99.90;;;;;;4934129;29;20118;-80
2021/09/13 10:47:41;;;;;;;2.85;2.05;;;21.00;99.90;;;;;;4931076;29;20130;-72
2021/09/13 10:50:17;;;;;;;5.38;1.70;;;20.90;99.90;;;;;;4930413;29;20030;-75
2021/09/13 10:52:44;;;;;;;4.90;2.00;;;20.80;99.90;;;;;;4936562;29;20086;-75
2021/09/13 10:55:11;;;;;;;4.35;1.90;;;20.80;99.90;;;;;;4926381;29;20036;-75
2021/09/13 10:57:56;;;;;;;2.60;1.65;;;20.60;99.90;;;;;;4925391;29;20035;-76
2021/09/13 11:00:45;;;;;;;7.07;4.32;;;20.60;99.90;;;;;;4928725;29;20436;-73
2021/09/13 11:03:23;;;;;;;7.70;2.97;;;20.50;99.90;;;;;;4923468;29;20170;-73
2021/09/13 11:06:13;;;;;;;7.38;2.95;;;20.40;99.90;;;;;;4936498;29;20023;-75
2021/09/13 11:08:50;;;;;;;5.97;3.00;;;20.20;99.90;;;;;;4930115;29;20031;-81
2021/09/13 11:11:25;;;;;;;3.08;1.75;;;20.00;99.90;;;;;;4932762;29;20539;-86
2021/09/13 11:14:16;;;;;;;2.75;1.75;;;19.80;99.90;;;;;;4916770;29;20036;-74
2021/09/13 11:16:47;;;;;;;2.67;1.50;;;19.60;99.90;;;;;;4931093;29;20063;-77
2021/09/13 11:19:14;;;;;;;13.55;6.22;;;19.50;99.90;;;;;;4932796;29;20020;-76
2021/09/13 11:21:43;;;;;;;15.90;7.13;;;19.40;99.90;;;;;;4926225;29;20036;-73
2021/09/13 11:24:16;;;;;;;7.63;3.92;;;19.40;99.90;;;;;;4925440;29;20052;-74
2021/09/13 11:26:59;;;;;;;6.05;3.42;;;19.40;99.90;;;;;;4936254;29;20107;-73
2021/09/13 11:29:33;;;;;;;6.38;3.40;;;19.40;99.90;;;;;;4918283;29;20400;-73
2021/09/13 11:32:05;;;;;;;8.02;2.70;;;19.40;99.90;;;;;;4921125;29;20476;-71
2021/09/13 11:34:40;;;;;;;4.75;2.45;;;19.40;99.90;;;;;;4935028;29;20059;-73
2021/09/13 11:37:27;;;;;;;5.35;2.22;;;19.50;99.90;;;;;;4929103;29;20039;-71
2021/09/13 11:39:57;;;;;;;3.50;1.83;;;19.50;99.90;;;;;;4934758;29;20042;-73
2021/09/13 11:42:25;;;;;;;2.67;1.98;;;19.50;99.90;;;;;;4935513;29;20047;-73
2021/09/13 11:45:06;;;;;;;2.47;1.58;;;19.60;99.90;;;;;;4933270;29;20028;-69
2021/09/13 11:47:33;;;;;;;2.70;2.05;;;19.70;99.90;;;;;;4934893;29;20031;-73
2021/09/13 11:50:01;;;;;;;2.10;1.40;;;19.70;99.90;;;;;;4934434;29;20392;-76
2021/09/13 11:52:30;;;;;;;4.55;2.03;;;19.90;99.90;;;;;;4927902;29;20035;-75
2021/09/13 11:55:06;;;;;;;2.35;1.58;;;19.90;99.90;;;;;;4915876;29;20063;-72
2021/09/13 11:57:55;;;;;;;1.92;1.20;;;20.10;99.90;;;;;;4915401;29;20032;-71
2021/09/13 12:00:24;;;;;;;3.03;1.65;;;20.40;99.90;;;;;;4914786;29;20031;-74
2021/09/13 12:02:56;;;;;;;2.65;1.73;;;20.50;99.90;;;;;;4914331;29;20481;-73
2021/09/13 12:05:28;;;;;;;4.15;2.35;;;20.60;99.90;;;;;;4924705;29;20031;-72
2021/09/13 12:07:55;;;;;;;1.80;1.42;;;20.80;99.90;;;;;;4928179;29;20024;-69
2021/09/13 12:10:33;;;;;;;2.80;1.40;;;20.90;99.90;;;;;;4918685;29;20036;-72
2021/09/13 12:13:01;;;;;;;4.65;2.90;;;21.10;99.90;;;;;;4928989;29;20155;-82
2021/09/13 12:15:31;;;;;;;4.13;2.80;;;21.10;99.90;;;;;;4914314;29;20572;-79
2021/09/13 12:17:57;;;;;;;4.00;2.20;;;21.20;99.90;;;;;;4919478;29;20488;-79
2021/09/13 12:20:41;;;;;;;2.83;1.80;;;21.30;99.90;;;;;;4953043;29;20114;-78
2021/09/13 12:23:12;;;;;;;3.03;1.85;;;21.40;99.90;;;;;;4950659;29;20034;-76
2021/09/13 12:25:45;;;;;;;3.75;2.90;;;21.50;99.90;;;;;;4914708;29;20119;-79
2021/09/13 12:28:14;;;;;;;9.23;3.75;;;21.50;99.90;;;;;;4918048;29;20015;-72
2021/09/13 12:30:42;;;;;;;5.45;3.13;;;21.60;99.90;;;;;;4926017;29;20354;-72
2021/09/13 12:33:09;;;;;;;8.18;4.65;;;21.80;99.90;;;;;;4934419;29;20471;-70
2021/09/13 12:35:38;;;;;;;5.70;3.47;;;21.80;99.90;;;;;;4922291;29;20072;-72
2021/09/13 12:38:11;;;;;;;3.28;1.67;;;21.90;99.90;;;;;;4930763;29;20028;-79
2021/09/13 12:41:07;;;;;;;2.47;1.10;;;21.90;99.90;;;;;;4947956;29;20448;-76
2021/09/13 12:43:41;;;;;;;1.67;1.13;;;21.90;99.90;;;;;;4908026;29;20039;-76
2021/09/13 12:46:16;;;;;;;1.00;0.90;;;22.00;99.90;;;;;;4931294;29;20028;-74
2021/09/13 12:48:47;;;;;;;2.22;1.20;;;22.00;99.90;;;;;;4928073;29;20027;-75
2021/09/13 12:51:21;;;;;;;;;;;21.90;99.90;;;;;;4926747;29;20035;-81
2021/09/13 12:54:12;;;;;;;4.10;1.70;;;21.90;99.90;;;;;;4933402;29;19966;-84
2021/09/13 12:56:45;;;;;;;2.88;1.90;;;21.90;99.90;;;;;;4923807;29;20032;-82